KSNH

Details ICAO KSNH
Name SAVANNAH HARDIN CO
Region United States
Timezone America/Chicago (UTC-6.0)
Plans Departing 10
Arriving 0
Stats Elevation 473 ft / 144 m (AMSL)
Location 35.170252° -88.216726°
Runways 1
Magnetic Variation 2.621° W
Sunrise 2017-12-15 12:55:30 UTC / 2017-12-15 06:55:30 Local
Sunset 2017-12-15 22:43:33 UTC / 2017-12-15 16:43:33 Local
Advertisement - Login to hide

Runways

ID Width Length Bearing (true) Bearing (mag) Surface Threshold Offset Overrun Length
01 100 ft / 30 m 5,012 ft / 1,528 m 7.48° 10.10° Concrete 0 ft / 0 m 0 ft / 0 m
19 100 ft / 30 m 5,012 ft / 1,528 m 187.48° 190.10° Concrete 0 ft / 0 m 0 ft / 0 m

Approach Navaids

Runway Type Ident Frequency Range Bearing (true) Bearing (mag) Slope Elevation
19 Localiser ISNH 108.30 MHz 18 nm / 33 km 187.48° 190.10° - 473 ft / 144 m (AMSL)

Map

Weather


0- 5 10 15 20 25 30 35+ Temperature / ° C

Clouds and Precipitation
Forecast for 2017-12-15 12:00 UTC. Updated an hour ago

Ground ~20,000 ft ~40,000 ft Winds

METAR

KSNH 151155Z AUTO 00000KT 10SM OVC039 M04/M04 A3015 RMK A01

TAF

Not found

Frequencies

Recorded 133.92 MHz AWOS 3
Unicom 122.80 MHz CTAF/UNICOM
Warning: Do not use this data for real-world aviation or navigation. No guarantee of current accuracy is given.